Disclaimer

Please do not use the information listed here in-flight or in-navigation, as they are not provided to us by the airports but are provided by volunteers, so they might be outdated.

Search


Regions


Airport information page

Radio informations:
Tower (TWR) - 120.6 MHz
Ground (GND) - 131.7 MHz
Approach (APP) - 124.2 MHz

Airport informations:
Latitude: 39° 05' 00.00" N
Longitude: 063° 36' 48.00" E
Elevation: 630 feet - 192 meters
Operating hours: 24 hour operations
Operating agency: Military-civil joint use airport
Timezone: UTC+5
Fuel: N/A

Runway information:
15/33 - 9022 x 138 feet< - >2750 x 42 meters

Recent METARs:
UTAV 182300Z 11006KT 4400 BR NSC 03/M01 Q1021 NOSIG
UTAV 182300Z 11006KT 4400 BR NSC 03/M01 Q1021 NOSIG
UTAV 190000Z 12006KT 3500 BR NSC 03/00 Q1021 NOSIG

Airport on the map: